createdAt,value
2023-04-28T00:00:18.815Z,0
2023-04-28T00:01:35.223Z,0
2023-04-28T00:02:51.191Z,0
2023-04-28T00:04:07.606Z,0
2023-04-28T00:05:23.785Z,0
2023-04-28T00:06:39.975Z,0
2023-04-28T00:07:55.937Z,0
2023-04-28T00:09:12.124Z,0
2023-04-28T00:10:28.323Z,0
2023-04-28T00:11:44.509Z,0
2023-04-28T00:13:00.688Z,0
2023-04-28T00:14:17.111Z,0
2023-04-28T00:15:33.073Z,0
2023-04-28T00:16:48.515Z,0
2023-04-28T00:18:04.697Z,0
2023-04-28T00:19:20.881Z,0
2023-04-28T00:20:37.082Z,0
2023-04-28T00:21:53.034Z,0
2023-04-28T00:23:09.226Z,0
2023-04-28T00:24:25.404Z,0
2023-04-28T00:25:41.595Z,0
2023-04-28T00:26:57.794Z,0
2023-04-28T00:28:13.968Z,0
2023-04-28T00:29:30.395Z,0
2023-04-28T00:30:46.362Z,0
2023-04-28T00:32:02.818Z,0
2023-04-28T00:33:18.030Z,0
2023-04-28T00:34:33.939Z,0
2023-04-28T00:35:50.116Z,0
2023-04-28T00:37:06.596Z,0
2023-04-28T00:38:22.490Z,0
2023-04-28T00:39:38.683Z,0
2023-04-28T00:40:54.876Z,0
2023-04-28T00:42:11.360Z,0
2023-04-28T00:43:27.539Z,0
2023-04-28T00:44:43.739Z,0
2023-04-28T00:45:59.625Z,0
2023-04-28T00:47:16.117Z,0
2023-04-28T00:49:48.195Z,0
2023-04-28T00:51:03.410Z,0
2023-04-28T00:52:19.887Z,0
2023-04-28T00:53:35.776Z,0
2023-04-28T00:54:52.257Z,0
2023-04-28T00:56:08.438Z,0
2023-04-28T00:57:24.349Z,0
2023-04-28T00:58:40.536Z,0
2023-04-28T00:59:57.015Z,0
2023-04-28T01:01:12.918Z,0
2023-04-28T01:02:29.393Z,0
2023-04-28T01:03:45.286Z,0
2023-04-28T01:05:01.761Z,0
2023-04-28T01:06:17.658Z,0
2023-04-28T01:07:32.876Z,0
2023-04-28T01:08:49.344Z,0
2023-04-28T01:10:05.536Z,0
2023-04-28T01:11:21.723Z,0
2023-04-28T01:12:37.917Z,0
2023-04-28T01:13:53.825Z,0
2023-04-28T01:15:10.290Z,0
2023-04-28T01:16:26.202Z,0
2023-04-28T01:17:42.681Z,0
2023-04-28T01:18:58.560Z,0
2023-04-28T01:20:14.757Z,0
2023-04-28T01:21:30.954Z,0
2023-04-28T01:22:47.434Z,0
2023-04-28T01:24:02.347Z,0
2023-04-28T01:25:18.821Z,0
2023-04-28T01:26:34.723Z,0
2023-04-28T01:27:50.900Z,0
2023-04-28T01:29:07.086Z,0
2023-04-28T01:30:22.608Z,0
2023-04-28T01:31:38.498Z,0
2023-04-28T01:32:54.994Z,0
2023-04-28T01:34:10.868Z,0
2023-04-28T01:35:27.074Z,0
2023-04-28T01:36:43.541Z,0
2023-04-28T01:37:59.434Z,0
2023-04-28T01:39:15.629Z,0
2023-04-28T01:40:32.118Z,0
2023-04-28T01:41:48.002Z,0
2023-04-28T01:43:04.495Z,0
2023-04-28T01:44:20.372Z,0
2023-04-28T01:45:36.578Z,0
2023-04-28T01:46:52.081Z,0
2023-04-28T01:48:08.257Z,0
2023-04-28T01:49:24.459Z,0
2023-04-28T01:50:40.639Z,0
2023-04-28T01:51:56.524Z,0
2023-04-28T01:53:13.020Z,0
2023-04-28T01:54:29.199Z,0
2023-04-28T01:55:45.401Z,0
2023-04-28T01:57:01.284Z,0
2023-04-28T01:58:17.485Z,0
2023-04-28T01:59:33.964Z,0
2023-04-28T02:00:50.151Z,0
2023-04-28T02:02:06.334Z,0
2023-04-28T02:03:21.252Z,0
2023-04-28T02:04:37.439Z,0
2023-04-28T02:05:53.929Z,0
2023-04-28T02:07:09.806Z,0
2023-04-28T02:08:26.005Z,0
2023-04-28T02:09:42.191Z,0
2023-04-28T02:10:58.687Z,0
2023-04-28T02:12:14.576Z,0
2023-04-28T02:13:30.749Z,0
2023-04-28T02:14:46.939Z,0
2023-04-28T02:16:03.440Z,0
2023-04-28T02:17:19.315Z,0
2023-04-28T02:18:35.805Z,0
2023-04-28T02:19:50.722Z,0
2023-04-28T02:21:07.208Z,0
2023-04-28T02:22:23.102Z,0
2023-04-28T02:23:39.589Z,0
2023-04-28T02:24:55.475Z,0
2023-04-28T02:26:11.656Z,0
2023-04-28T02:27:28.145Z,0
2023-04-28T02:28:44.037Z,0
2023-04-28T02:30:00.229Z,0
2023-04-28T02:31:16.729Z,0
2023-04-28T02:32:32.595Z,0
2023-04-28T02:33:49.107Z,0
2023-04-28T02:35:04.970Z,0
2023-04-28T02:36:20.176Z,0
2023-04-28T02:37:36.683Z,0
2023-04-28T02:38:52.877Z,0
2023-04-28T02:40:09.062Z,0
2023-04-28T02:41:25.251Z,0
2023-04-28T02:42:41.119Z,0
2023-04-28T02:43:57.314Z,0
2023-04-28T02:45:13.805Z,0
2023-04-28T02:46:29.994Z,0
2023-04-28T02:47:45.875Z,0
2023-04-28T02:49:02.377Z,0
2023-04-28T02:50:18.572Z,0
2023-04-28T02:51:34.759Z,0
2023-04-28T02:52:49.962Z,0
2023-04-28T02:54:06.146Z,0
2023-04-28T02:55:22.037Z,0
2023-04-28T02:56:38.531Z,0
2023-04-28T02:57:54.412Z,0
2023-04-28T02:59:10.606Z,0
2023-04-28T03:00:26.781Z,0
2023-04-28T03:01:42.965Z,0
2023-04-28T03:02:59.475Z,0
2023-04-28T03:04:15.665Z,0
2023-04-28T03:05:31.860Z,0
2023-04-28T03:06:47.726Z,0
2023-04-28T03:08:03.924Z,0
2023-04-28T03:09:19.431Z,0
2023-04-28T03:10:35.311Z,0
2023-04-28T03:11:51.502Z,0
2023-04-28T03:13:07.690Z,0
2023-04-28T03:14:23.880Z,0
2023-04-28T03:15:40.382Z,4
2023-04-28T03:16:56.573Z,4
2023-04-28T03:18:12.760Z,4
2023-04-28T03:19:28.640Z,0
2023-04-28T03:20:44.811Z,4
2023-04-28T03:22:01.005Z,4
2023-04-28T03:23:17.208Z,4
2023-04-28T03:24:33.697Z,8
2023-04-28T03:25:48.587Z,8
2023-04-28T03:27:05.108Z,8
2023-04-28T03:28:20.976Z,12
2023-04-28T03:29:37.483Z,12
2023-04-28T03:30:53.338Z,16
2023-04-28T03:32:09.539Z,16
2023-04-28T03:33:25.712Z,20
2023-04-28T03:34:42.233Z,24
2023-04-28T03:35:58.088Z,28
2023-04-28T03:37:14.278Z,32
2023-04-28T03:38:30.472Z,32
2023-04-28T03:39:46.669Z,40
2023-04-28T03:41:02.845Z,48
2023-04-28T03:42:18.375Z,56
2023-04-28T03:43:34.577Z,60
2023-04-28T03:44:50.443Z,68
2023-04-28T03:46:06.617Z,76
2023-04-28T03:47:23.131Z,84
2023-04-28T03:48:39.002Z,96
2023-04-28T03:49:55.503Z,104
2023-04-28T03:51:11.374Z,112
2023-04-28T03:52:27.558Z,124
2023-04-28T03:53:44.065Z,140
2023-04-28T03:55:00.259Z,148
2023-04-28T03:56:16.440Z,160
2023-04-28T03:57:32.299Z,172
2023-04-28T03:58:47.502Z,188
2023-04-28T04:00:03.693Z,208
2023-04-28T04:01:19.882Z,224
2023-04-28T04:02:36.078Z,240
2023-04-28T04:03:52.255Z,256
2023-04-28T04:05:08.439Z,264
2023-04-28T04:06:24.635Z,276
2023-04-28T04:07:41.146Z,280
2023-04-28T04:08:57.342Z,292
2023-04-28T04:10:13.523Z,300
2023-04-28T04:11:29.376Z,312
2023-04-28T04:12:45.565Z,324
2023-04-28T04:14:01.762Z,340
2023-04-28T04:15:17.283Z,356
2023-04-28T04:16:33.150Z,372
2023-04-28T04:17:49.339Z,388
2023-04-28T04:19:05.848Z,408
2023-04-28T04:20:22.039Z,428
2023-04-28T04:21:38.225Z,468
2023-04-28T04:22:54.410Z,492
2023-04-28T04:25:26.700Z,512
2023-04-28T04:26:42.886Z,532
2023-04-28T04:27:59.154Z,544
2023-04-28T04:29:15.259Z,564
2023-04-28T04:30:31.450Z,576
2023-04-28T04:31:46.658Z,588
2023-04-28T04:33:02.916Z,600
2023-04-28T04:34:19.100Z,608
2023-04-28T04:35:35.299Z,608
2023-04-28T04:36:51.414Z,608
2023-04-28T04:38:07.594Z,612
2023-04-28T04:39:23.787Z,608
2023-04-28T04:40:40.037Z,612
2023-04-28T04:41:56.146Z,612
2023-04-28T04:43:12.348Z,624
2023-04-28T04:44:28.611Z,628
2023-04-28T04:45:44.710Z,620
2023-04-28T04:47:00.975Z,596
2023-04-28T04:48:16.192Z,596
2023-04-28T04:49:32.295Z,604
2023-04-28T04:50:48.557Z,612
2023-04-28T04:52:04.667Z,628
2023-04-28T04:53:20.859Z,632
2023-04-28T04:54:37.045Z,656
2023-04-28T04:55:53.221Z,696
2023-04-28T04:57:09.488Z,732
2023-04-28T04:58:25.677Z,780
2023-04-28T04:59:41.784Z,828
2023-04-28T05:00:57.968Z,820
2023-04-28T05:02:14.171Z,832
2023-04-28T05:03:30.429Z,880
2023-04-28T05:04:45.555Z,900
2023-04-28T05:06:01.742Z,912
2023-04-28T05:07:17.926Z,948
2023-04-28T05:08:34.196Z,976
2023-04-28T05:09:50.374Z,980
2023-04-28T05:11:06.581Z,980
2023-04-28T05:12:22.766Z,984
2023-04-28T05:13:38.950Z,992
2023-04-28T05:14:55.051Z,988
2023-04-28T05:16:11.225Z,980
2023-04-28T05:17:27.425Z,968
2023-04-28T05:18:43.699Z,964
2023-04-28T05:19:59.794Z,956
2023-04-28T05:21:15.079Z,996
2023-04-28T05:22:31.264Z,1008
2023-04-28T05:23:47.380Z,1024
2023-04-28T05:25:03.649Z,1032
2023-04-28T05:26:19.737Z,1040
2023-04-28T05:27:35.938Z,1056
2023-04-28T05:28:52.213Z,1080
2023-04-28T05:30:08.295Z,1096
2023-04-28T05:31:24.499Z,1116
2023-04-28T05:32:40.686Z,1128
2023-04-28T05:33:56.866Z,1144
2023-04-28T05:35:13.057Z,1156
2023-04-28T05:36:29.323Z,1168
2023-04-28T05:37:44.523Z,1176
2023-04-28T05:39:00.623Z,1184
2023-04-28T05:40:16.827Z,1196
2023-04-28T05:41:33.101Z,1208
2023-04-28T05:42:49.196Z,1188
2023-04-28T05:44:05.370Z,1176
2023-04-28T05:45:20.577Z,1164
2023-04-28T05:46:36.777Z,1168
2023-04-28T05:47:53.058Z,1176
2023-04-28T05:49:09.234Z,1168
2023-04-28T05:50:25.328Z,1156
2023-04-28T05:51:41.610Z,1148
2023-04-28T05:52:57.700Z,1168
2023-04-28T05:54:13.983Z,1184
2023-04-28T05:55:30.081Z,1204
2023-04-28T05:56:46.367Z,1220
2023-04-28T05:58:02.457Z,1228
2023-04-28T05:59:18.634Z,1244
2023-04-28T06:00:34.830Z,1248
2023-04-28T06:01:50.129Z,1280
2023-04-28T06:03:06.316Z,1344
2023-04-28T06:04:22.513Z,1424
2023-04-28T06:05:38.588Z,1504
2023-04-28T06:06:54.880Z,1580
2023-04-28T06:08:10.971Z,1652
2023-04-28T06:09:27.162Z,1688
2023-04-28T06:10:43.337Z,1764
2023-04-28T06:11:59.624Z,1852
2023-04-28T06:13:15.803Z,1936
2023-04-28T06:14:31.905Z,2040
2023-04-28T06:15:48.187Z,2120
2023-04-28T06:17:04.286Z,2180
2023-04-28T06:18:19.471Z,2236
2023-04-28T06:19:35.776Z,2276
2023-04-28T06:20:51.845Z,2316
2023-04-28T06:22:08.149Z,2340
2023-04-28T06:23:24.233Z,2368
2023-04-28T06:24:40.410Z,2380
2023-04-28T06:25:56.599Z,2388
2023-04-28T06:27:12.895Z,2360
2023-04-28T06:28:29.070Z,2312
2023-04-28T06:29:45.263Z,2444
2023-04-28T06:31:01.340Z,2536
2023-04-28T06:32:17.525Z,2572
2023-04-28T06:33:33.722Z,2600
2023-04-28T06:34:49.024Z,2524
2023-04-28T06:36:05.101Z,2316
2023-04-28T06:37:21.294Z,2296
2023-04-28T06:38:37.585Z,2288
2023-04-28T06:39:53.660Z,2384
2023-04-28T06:41:09.857Z,2460
2023-04-28T06:42:26.157Z,2348
2023-04-28T06:43:42.230Z,2544
2023-04-28T06:44:58.419Z,2616
2023-04-28T06:46:14.613Z,2392
2023-04-28T06:47:30.790Z,2412
2023-04-28T06:48:46.972Z,2324
2023-04-28T06:50:03.279Z,2312
2023-04-28T06:51:18.374Z,2176
2023-04-28T06:52:34.547Z,2068
2023-04-28T06:53:50.772Z,1948
2023-04-28T06:55:06.949Z,1828
2023-04-28T06:56:23.113Z,1816
2023-04-28T06:57:39.336Z,1968
2023-04-28T06:58:55.491Z,1620
2023-04-28T07:00:11.703Z,1616
2023-04-28T07:01:27.864Z,1664
2023-04-28T07:02:44.067Z,1528
2023-04-28T07:04:00.233Z,1776
2023-04-28T07:05:16.455Z,1628
2023-04-28T07:06:32.634Z,1608
2023-04-28T07:07:47.815Z,1668
2023-04-28T07:09:03.997Z,1492
2023-04-28T07:10:20.211Z,1576
2023-04-28T07:11:36.364Z,1540
2023-04-28T07:12:52.558Z,1628
2023-04-28T07:14:08.751Z,1424
2023-04-28T07:15:24.931Z,1596
2023-04-28T07:16:41.156Z,1592
2023-04-28T07:17:57.340Z,1536
2023-04-28T07:19:13.505Z,1672
2023-04-28T07:20:29.708Z,1688
2023-04-28T07:21:45.870Z,1700
2023-04-28T07:23:02.087Z,1720
2023-04-28T07:24:17.258Z,1736
2023-04-28T07:25:33.452Z,1744
2023-04-28T07:26:49.621Z,1764
2023-04-28T07:28:05.855Z,1800
2023-04-28T07:29:22.006Z,1848
2023-04-28T07:30:38.199Z,1896
2023-04-28T07:31:54.385Z,1972
2023-04-28T07:33:10.565Z,2048
2023-04-28T07:34:26.750Z,2088
2023-04-28T07:35:42.974Z,2084
2023-04-28T07:36:59.127Z,2076
2023-04-28T07:38:15.307Z,2084
2023-04-28T07:39:31.498Z,2072
2023-04-28T07:40:46.714Z,2052
2023-04-28T07:42:02.900Z,2028
2023-04-28T07:43:19.119Z,1996
2023-04-28T07:44:35.270Z,1992
2023-04-28T07:45:51.489Z,2008
2023-04-28T07:47:07.632Z,2056
2023-04-28T07:48:23.816Z,2080
2023-04-28T07:49:40.017Z,2040
2023-04-28T07:50:56.244Z,2016
2023-04-28T07:52:12.385Z,1976
2023-04-28T07:53:28.610Z,1920
2023-04-28T07:54:44.791Z,1840
2023-04-28T07:56:00.938Z,1768
2023-04-28T07:57:16.153Z,1728
2023-04-28T07:58:32.383Z,1728
2023-04-28T07:59:48.521Z,1724
2023-04-28T08:01:04.743Z,1728
2023-04-28T08:02:20.899Z,1704
2023-04-28T08:03:37.083Z,1828
2023-04-28T08:04:53.265Z,1956
2023-04-28T08:06:09.466Z,2048
2023-04-28T08:07:25.644Z,2080
2023-04-28T08:08:41.868Z,2152
2023-04-28T08:09:58.052Z,2204
2023-04-28T08:11:14.209Z,2260
2023-04-28T08:12:30.392Z,2292
2023-04-28T08:13:45.629Z,2312
2023-04-28T08:15:01.791Z,2332
2023-04-28T08:16:18.009Z,2352
2023-04-28T08:18:50.351Z,2380
2023-04-28T08:20:06.531Z,2396
2023-04-28T08:21:22.763Z,2416
2023-04-28T08:22:38.896Z,2448
2023-04-28T08:23:55.125Z,2480
2023-04-28T08:25:11.266Z,2536
2023-04-28T08:26:27.456Z,2580
2023-04-28T08:27:43.654Z,2624
2023-04-28T08:28:59.885Z,2652
2023-04-28T08:30:15.044Z,2688
2023-04-28T08:31:31.235Z,2724
2023-04-28T08:32:47.419Z,2764
2023-04-28T08:34:03.591Z,2804
2023-04-28T08:35:19.836Z,2832
2023-04-28T08:36:36.011Z,2860
2023-04-28T08:37:52.164Z,2884
2023-04-28T08:39:08.395Z,2904
2023-04-28T08:40:24.534Z,2924
2023-04-28T08:41:40.716Z,2944
2023-04-28T08:42:56.907Z,2980
2023-04-28T08:44:13.143Z,3000
2023-04-28T08:45:29.290Z,3028
2023-04-28T08:46:44.481Z,3048
2023-04-28T08:48:00.675Z,3076
2023-04-28T08:49:16.898Z,3120
2023-04-28T08:50:33.045Z,3176
2023-04-28T08:51:49.285Z,3236
2023-04-28T08:53:05.409Z,3288
2023-04-28T08:54:21.655Z,3324
2023-04-28T08:55:37.798Z,3348
2023-04-28T08:56:53.981Z,3376
2023-04-28T08:58:10.170Z,3412
2023-04-28T08:59:26.395Z,3436
2023-04-28T09:00:42.582Z,3476
2023-04-28T09:01:58.720Z,3520
2023-04-28T09:03:13.925Z,3568
2023-04-28T09:04:30.115Z,3624
2023-04-28T09:05:46.297Z,3684
2023-04-28T09:07:02.552Z,3744
2023-04-28T09:08:18.678Z,3816
2023-04-28T09:09:34.865Z,3896
2023-04-28T09:10:51.047Z,3980
2023-04-28T09:12:07.247Z,4028
2023-04-28T09:13:23.428Z,4084
2023-04-28T09:14:39.669Z,4120
2023-04-28T09:15:55.804Z,4140
2023-04-28T09:17:11.987Z,4136
2023-04-28T09:18:28.178Z,4108
2023-04-28T09:19:43.366Z,4080
2023-04-28T09:20:59.561Z,4052
2023-04-28T09:22:15.807Z,4008
2023-04-28T09:23:31.939Z,3972
2023-04-28T09:24:48.125Z,3952
2023-04-28T09:26:04.300Z,3940
2023-04-28T09:27:20.505Z,3932
2023-04-28T09:28:36.678Z,3956
2023-04-28T09:29:52.922Z,4004
2023-04-28T09:31:09.060Z,4040
2023-04-28T09:32:25.236Z,4060
2023-04-28T09:33:41.424Z,4084
2023-04-28T09:34:57.612Z,4120
2023-04-28T09:36:12.816Z,4172
2023-04-28T09:37:29.008Z,4256
2023-04-28T09:38:45.248Z,4316
2023-04-28T09:40:01.389Z,4332
2023-04-28T09:41:17.561Z,4324
2023-04-28T09:42:33.763Z,4336
2023-04-28T09:43:49.939Z,4328
2023-04-28T09:45:06.192Z,4324
2023-04-28T09:46:22.305Z,4320
2023-04-28T09:47:38.494Z,4352
2023-04-28T09:48:54.679Z,4416
2023-04-28T09:50:10.886Z,4456
2023-04-28T09:51:27.066Z,4592
2023-04-28T09:52:42.258Z,4764
2023-04-28T09:53:58.451Z,4840
2023-04-28T09:55:14.697Z,4868
2023-04-28T09:56:30.000Z,4972
2023-04-28T09:57:47.082Z,5056
2023-04-28T09:59:03.207Z,5116
2023-04-28T10:00:18.480Z,5156
2023-04-28T10:01:34.598Z,5200
2023-04-28T10:02:50.838Z,5228
2023-04-28T10:04:07.026Z,5260
2023-04-28T10:05:23.160Z,5300
2023-04-28T10:06:39.346Z,5328
2023-04-28T10:07:55.602Z,5340
2023-04-28T10:09:11.716Z,5356
2023-04-28T10:10:27.979Z,5420
2023-04-28T10:11:44.094Z,5440
2023-04-28T10:13:00.285Z,5452
2023-04-28T10:14:16.468Z,5456
2023-04-28T10:15:32.654Z,5484
2023-04-28T10:16:47.919Z,5540
2023-04-28T10:18:04.099Z,5576
2023-04-28T10:19:20.236Z,5608
2023-04-28T10:20:36.416Z,5620
2023-04-28T10:21:52.610Z,5664
2023-04-28T10:23:08.850Z,5808
2023-04-28T10:24:24.965Z,5956
2023-04-28T10:25:41.227Z,6020
2023-04-28T10:26:57.357Z,5948
2023-04-28T10:28:13.532Z,5884
2023-04-28T10:29:29.730Z,5948
2023-04-28T10:30:45.916Z,6072
2023-04-28T10:32:02.100Z,6260
2023-04-28T10:33:17.300Z,6340
2023-04-28T10:34:33.485Z,6376
2023-04-28T10:35:49.682Z,6340
2023-04-28T10:37:05.862Z,6412
2023-04-28T10:38:22.115Z,6768
2023-04-28T10:39:38.245Z,6980
2023-04-28T10:40:54.487Z,7248
2023-04-28T10:42:10.604Z,7692
2023-04-28T10:43:26.806Z,8068
2023-04-28T10:44:42.975Z,7920
2023-04-28T10:45:59.241Z,7992
2023-04-28T10:47:15.367Z,8728
2023-04-28T10:48:31.611Z,8848
2023-04-28T10:49:46.740Z,8180
2023-04-28T10:51:02.944Z,7652
2023-04-28T10:52:19.120Z,7592
2023-04-28T10:53:35.376Z,7384
2023-04-28T10:54:51.490Z,7856
2023-04-28T10:56:07.674Z,8308
2023-04-28T10:57:23.864Z,8444
2023-04-28T10:58:40.051Z,8984
2023-04-28T10:59:56.243Z,9064
2023-04-28T11:01:12.433Z,9664
2023-04-28T11:02:28.620Z,10092
2023-04-28T11:03:44.792Z,10052
2023-04-28T11:05:00.998Z,9964
2023-04-28T11:06:16.198Z,10128
2023-04-28T11:07:32.381Z,9880
2023-04-28T11:08:48.560Z,9284
2023-04-28T11:10:04.747Z,9480
2023-04-28T11:11:21.021Z,9380
2023-04-28T11:12:37.120Z,9308
2023-04-28T11:13:53.307Z,9724
2023-04-28T11:15:09.499Z,9896
2023-04-28T11:16:25.767Z,9672
2023-04-28T11:17:41.881Z,9904
2023-04-28T11:18:58.141Z,10620
2023-04-28T11:20:14.322Z,11020
2023-04-28T11:21:30.428Z,10968
2023-04-28T11:22:45.635Z,10400
2023-04-28T11:24:01.913Z,9340
2023-04-28T11:25:18.001Z,8860
2023-04-28T11:26:34.287Z,8980
2023-04-28T11:27:50.396Z,8664
2023-04-28T11:29:06.572Z,9028
2023-04-28T11:30:22.761Z,8820
2023-04-28T11:31:39.032Z,8528
2023-04-28T11:32:55.139Z,8480
2023-04-28T11:34:11.321Z,7924
2023-04-28T11:35:27.508Z,6892
2023-04-28T11:36:43.699Z,7108
2023-04-28T11:37:59.874Z,6976
2023-04-28T11:39:15.172Z,5888
2023-04-28T11:40:31.276Z,5548
2023-04-28T11:41:47.450Z,5384
2023-04-28T11:43:03.639Z,5536
2023-04-28T11:44:19.907Z,5356
2023-04-28T11:45:36.018Z,6064
2023-04-28T11:46:52.290Z,7016
2023-04-28T11:48:08.398Z,13232
2023-04-28T11:49:24.572Z,9000
2023-04-28T11:50:40.762Z,8956
2023-04-28T11:51:56.962Z,6892
2023-04-28T11:53:13.135Z,6656
2023-04-28T11:54:29.416Z,6012
2023-04-28T11:55:44.541Z,5896
2023-04-28T11:57:00.796Z,6404
2023-04-28T11:58:16.983Z,6584
2023-04-28T11:59:33.086Z,7276
2023-04-28T12:00:49.281Z,6804
2023-04-28T12:02:05.561Z,6132
2023-04-28T12:03:21.660Z,6400
2023-04-28T12:04:37.923Z,6944
2023-04-28T12:05:54.026Z,7896
2023-04-28T12:07:10.302Z,9992
2023-04-28T12:08:26.400Z,13072
2023-04-28T12:09:42.673Z,11152
2023-04-28T12:10:58.769Z,11544
2023-04-28T12:12:14.076Z,12948
2023-04-28T12:13:30.171Z,14684
2023-04-28T12:14:46.449Z,23424
2023-04-28T12:16:02.535Z,24896
2023-04-28T12:17:18.811Z,21376
2023-04-28T12:18:34.916Z,18576
2023-04-28T12:19:51.193Z,26144
2023-04-28T12:21:07.280Z,19296
2023-04-28T12:22:23.563Z,20864
2023-04-28T12:23:39.749Z,25312
2023-04-28T12:24:55.931Z,19488
2023-04-28T12:27:28.313Z,21120
2023-04-28T12:28:43.414Z,18912
2023-04-28T12:29:59.618Z,15600
2023-04-28T12:31:15.795Z,16276
2023-04-28T12:32:32.074Z,16732
2023-04-28T12:33:48.270Z,11968
2023-04-28T12:35:04.364Z,11668
2023-04-28T12:36:20.540Z,14896
2023-04-28T12:37:36.731Z,14040
2023-04-28T12:38:52.913Z,13660
2023-04-28T12:40:09.196Z,12556
2023-04-28T12:41:25.293Z,11932
2023-04-28T12:42:41.470Z,12724
2023-04-28T12:43:57.662Z,15956
2023-04-28T12:45:12.865Z,12460
2023-04-28T12:46:29.065Z,10788
2023-04-28T12:47:45.339Z,9132
2023-04-28T12:49:01.425Z,7372
2023-04-28T12:50:17.709Z,7156
2023-04-28T12:51:33.802Z,7164
2023-04-28T12:52:49.985Z,6184
2023-04-28T12:54:06.182Z,5528
2023-04-28T12:55:22.470Z,5332
2023-04-28T12:56:38.551Z,4964
2023-04-28T12:57:54.750Z,4352
2023-04-28T12:59:10.939Z,4096
2023-04-28T13:00:27.105Z,4200
2023-04-28T13:01:42.408Z,4660
2023-04-28T13:02:58.604Z,5276
2023-04-28T13:04:14.699Z,6164
2023-04-28T13:05:30.883Z,6700
2023-04-28T13:06:47.069Z,6668
2023-04-28T13:08:03.255Z,6436
2023-04-28T13:09:19.443Z,6004
2023-04-28T13:10:35.722Z,5556
2023-04-28T13:11:51.819Z,5404
2023-04-28T13:13:08.002Z,5064
2023-04-28T13:14:24.287Z,4784
2023-04-28T13:15:40.369Z,4588
2023-04-28T13:16:56.562Z,4396
2023-04-28T13:18:11.855Z,4404
2023-04-28T13:19:27.950Z,4720
2023-04-28T13:20:44.147Z,5096
2023-04-28T13:22:00.000Z,5440
2023-04-28T13:23:16.513Z,4908
2023-04-28T13:24:32.815Z,4648
2023-04-28T13:25:49.004Z,4936
2023-04-28T13:27:05.073Z,4944
2023-04-28T13:28:21.269Z,4368
2023-04-28T13:29:37.449Z,3976
2023-04-28T13:30:53.637Z,4420
2023-04-28T13:32:09.837Z,5416
2023-04-28T13:33:26.137Z,5284
2023-04-28T13:34:41.225Z,4856
2023-04-28T13:35:57.425Z,4216
2023-04-28T13:37:13.612Z,3400
2023-04-28T13:38:29.785Z,3024
2023-04-28T13:39:46.091Z,2796
2023-04-28T13:41:02.288Z,2836
2023-04-28T13:42:18.363Z,2960
2023-04-28T13:43:34.542Z,2700
2023-04-28T13:44:50.742Z,2348
2023-04-28T13:46:06.923Z,2416
2023-04-28T13:47:23.120Z,2832
2023-04-28T13:48:39.407Z,2736
2023-04-28T13:49:55.484Z,2684
2023-04-28T13:51:10.802Z,2884
2023-04-28T13:52:26.988Z,3076
2023-04-28T13:53:43.072Z,2988
2023-04-28T13:54:59.255Z,2732
2023-04-28T13:56:15.454Z,2444
2023-04-28T13:57:31.637Z,2260
2023-04-28T13:58:47.941Z,2164
2023-04-28T14:00:04.006Z,1976
2023-04-28T14:01:20.197Z,1796
2023-04-28T14:02:36.400Z,1748
2023-04-28T14:03:52.588Z,1744
2023-04-28T14:05:08.764Z,1760
2023-04-28T14:06:24.964Z,1804
2023-04-28T14:07:40.158Z,1948
2023-04-28T14:08:56.356Z,2104
2023-04-28T14:10:12.538Z,2148
2023-04-28T14:11:28.840Z,2164
2023-04-28T14:12:44.917Z,2224
2023-04-28T14:14:01.216Z,2304
2023-04-28T14:15:16.420Z,2364
2023-04-28T14:16:32.618Z,2368
2023-04-28T14:17:48.698Z,2344
2023-04-28T14:19:04.884Z,2320
2023-04-28T14:20:21.072Z,2276
2023-04-28T14:21:37.248Z,2204
2023-04-28T14:22:53.444Z,2112
2023-04-28T14:24:09.635Z,2000
2023-04-28T14:25:25.829Z,1856
2023-04-28T14:26:42.127Z,1676
2023-04-28T14:27:58.319Z,1516
2023-04-28T14:29:14.515Z,1392
2023-04-28T14:30:30.585Z,1336
2023-04-28T14:31:45.791Z,1300
2023-04-28T14:33:01.963Z,1256
2023-04-28T14:34:18.273Z,1224
2023-04-28T14:35:34.354Z,1184
2023-04-28T14:36:50.530Z,1164
2023-04-28T14:38:06.727Z,1160
2023-04-28T14:39:22.911Z,1172
2023-04-28T14:40:39.223Z,1152
2023-04-28T14:41:55.404Z,1144
2023-04-28T14:43:11.605Z,1196
2023-04-28T14:44:27.781Z,1268
2023-04-28T14:45:43.857Z,1308
2023-04-28T14:47:00.040Z,1328
2023-04-28T14:48:15.239Z,1356
2023-04-28T14:49:31.566Z,1392
2023-04-28T14:50:47.624Z,1388
2023-04-28T14:52:03.931Z,1372
2023-04-28T14:53:20.129Z,1296
2023-04-28T14:54:36.323Z,1228
2023-04-28T14:55:52.512Z,1216
2023-04-28T14:57:08.564Z,1308
2023-04-28T14:58:24.752Z,1516
2023-04-28T14:59:40.945Z,1732
2023-04-28T15:00:57.142Z,1852
2023-04-28T15:02:13.329Z,1856
2023-04-28T15:03:29.507Z,1848
2023-04-28T15:04:44.836Z,1876
2023-04-28T15:06:01.028Z,1912
2023-04-28T15:07:17.211Z,1912
2023-04-28T15:08:33.281Z,1916
2023-04-28T15:09:49.480Z,1952
2023-04-28T15:11:05.668Z,1956
2023-04-28T15:12:21.975Z,1896
2023-04-28T15:13:38.036Z,1768
2023-04-28T15:14:54.348Z,1672
2023-04-28T15:16:10.410Z,1608
2023-04-28T15:17:26.732Z,1540
2023-04-28T15:18:42.921Z,1396
2023-04-28T15:19:59.117Z,1244
2023-04-28T15:21:14.310Z,1216
2023-04-28T15:22:30.387Z,1392
2023-04-28T15:23:46.562Z,1640
2023-04-28T15:25:02.760Z,1888
2023-04-28T15:26:18.937Z,1972
2023-04-28T15:27:35.255Z,1900
2023-04-28T15:28:51.316Z,1636
2023-04-28T15:30:07.644Z,1376
2023-04-28T15:31:23.705Z,1196
2023-04-28T15:32:40.007Z,1056
2023-04-28T15:33:56.210Z,964
2023-04-28T15:35:12.398Z,924
2023-04-28T15:36:28.454Z,896
2023-04-28T15:37:43.780Z,868
2023-04-28T15:38:59.851Z,852
2023-04-28T15:40:16.041Z,804
2023-04-28T15:41:32.217Z,736
2023-04-28T15:42:48.547Z,708
2023-04-28T15:44:04.736Z,712
2023-04-28T15:45:20.926Z,796
2023-04-28T15:46:37.112Z,920
2023-04-28T15:47:53.294Z,1004
2023-04-28T15:49:09.344Z,1040
2023-04-28T15:50:25.545Z,1076
2023-04-28T15:51:41.734Z,1176
2023-04-28T15:52:57.928Z,1372
2023-04-28T15:54:13.131Z,1528
2023-04-28T15:55:29.313Z,1572
2023-04-28T15:56:45.500Z,1480
2023-04-28T15:58:01.832Z,1320
2023-04-28T15:59:17.876Z,1188
2023-04-28T16:00:34.210Z,1116
2023-04-28T16:01:50.250Z,1096
2023-04-28T16:03:06.450Z,1088
2023-04-28T16:04:22.643Z,1020
2023-04-28T16:05:38.960Z,952
2023-04-28T16:06:55.020Z,912
2023-04-28T16:08:11.200Z,836
2023-04-28T16:09:27.387Z,764
2023-04-28T16:10:42.595Z,748
2023-04-28T16:11:58.920Z,736
2023-04-28T16:13:15.112Z,732
2023-04-28T16:14:31.165Z,736
2023-04-28T16:15:47.488Z,764
2023-04-28T16:17:03.533Z,800
2023-04-28T16:18:19.734Z,864
2023-04-28T16:19:35.907Z,892
2023-04-28T16:20:52.235Z,844
2023-04-28T16:22:08.439Z,792
2023-04-28T16:23:24.631Z,760
2023-04-28T16:24:40.801Z,752
2023-04-28T16:25:56.862Z,780
2023-04-28T16:27:12.059Z,844
2023-04-28T16:28:28.384Z,892
2023-04-28T16:29:44.446Z,964
2023-04-28T16:31:00.773Z,980
2023-04-28T16:32:16.813Z,956
2023-04-28T16:33:32.999Z,920
2023-04-28T16:34:49.332Z,892
2023-04-28T16:36:05.520Z,872
2023-04-28T16:37:21.716Z,856
2023-04-28T16:38:37.908Z,884
2023-04-28T16:39:53.938Z,932
2023-04-28T16:41:10.132Z,928
2023-04-28T16:42:26.321Z,896
2023-04-28T16:43:41.675Z,860
2023-04-28T16:44:57.723Z,780
2023-04-28T16:46:14.047Z,708
2023-04-28T16:47:30.245Z,620
2023-04-28T16:48:46.274Z,580
2023-04-28T16:50:02.613Z,496
2023-04-28T16:51:18.807Z,424
2023-04-28T16:52:34.847Z,368
2023-04-28T16:53:51.181Z,352
2023-04-28T16:55:07.214Z,324
2023-04-28T16:56:23.409Z,296
2023-04-28T16:57:39.595Z,292
2023-04-28T16:58:55.936Z,296
2023-04-28T17:00:11.151Z,304
2023-04-28T17:01:27.336Z,332
2023-04-28T17:02:43.372Z,376
2023-04-28T17:03:59.568Z,424
2023-04-28T17:05:15.744Z,460
2023-04-28T17:06:32.096Z,500
2023-04-28T17:07:48.128Z,536
2023-04-28T17:09:04.476Z,552
2023-04-28T17:10:20.512Z,552
2023-04-28T17:11:36.690Z,552
2023-04-28T17:12:53.029Z,572
2023-04-28T17:14:09.215Z,600
2023-04-28T17:15:25.414Z,636
2023-04-28T17:16:40.629Z,632
2023-04-28T17:17:56.653Z,576
2023-04-28T17:19:12.843Z,488
2023-04-28T17:20:29.033Z,432
2023-04-28T17:21:45.367Z,416
2023-04-28T17:23:01.399Z,416
2023-04-28T17:24:17.744Z,388